Wallkill, New York
Current Conditions -  °F | °C
As of 9:45 AM on Wednesday 26 Nov 2014 (Local Time) from KSWF Reporting Station
Moderate Snow Moderate Snow  
Wind Chill: 27°   Ceiling: 300
Heat Index: 34°   Visibility: 0.5mi
Dew Point: 32°   Wind: 8mph
Humidity: 93%   Direction: 60°ENE
Pressure: 30.15"   Gusts: NA
Location:  41.61°N, 74.16°W
Report Text: KSWF 261445Z 06007KT 1/2SM SN VV003 01/00 A3015
Loading
Personal Weather Stations






























Interactive Weather Map New forecast layout! Learn more

10-Day Weather Forecast

Advertisements
Track Severe Weather on mobile